<?xml version='1.0' encoding='UTF-8'?><gpx version="1.1" creator="JPX - https://github.com/jenetics/jpx" xmlns="http://www.topografix.com/GPX/1/1"><trk><trkseg><trkpt lat="43.7576168" lon="11.1806574"><ele>43.5</ele><time>2026-04-20T10:57:27.921Z</time></trkpt><trkpt lat="43.7578357" lon="11.1803035"><ele>44.0</ele><time>2026-04-20T10:57:34.915Z</time></trkpt><trkpt lat="43.7579273" lon="11.1801893"><ele>44.0</ele><time>2026-04-20T10:57:35.868Z</time></trkpt><trkpt lat="43.7579928" lon="11.1801327"><ele>44.0</ele><time>2026-04-20T10:57:38.361Z</time></trkpt><trkpt lat="43.7579938" lon="11.1804953"><ele>44.0</ele><time>2026-04-20T10:57:55.425Z</time></trkpt><trkpt lat="43.7579888" lon="11.1805904"><ele>44.0</ele><time>2026-04-20T10:57:56.403Z</time></trkpt><trkpt lat="43.7580421" lon="11.1806695"><ele>44.166666666666664</ele><time>2026-04-20T10:58:02.255Z</time></trkpt><trkpt lat="43.758094" lon="11.1807455"><ele>44.33333333333333</ele><time>2026-04-20T10:58:06.332Z</time></trkpt><trkpt lat="43.7580965" lon="11.1808407"><ele>44.5</ele><time>2026-04-20T10:58:10.427Z</time></trkpt><trkpt lat="43.7580477" lon="11.1809294"><ele>44.666666666666664</ele><time>2026-04-20T10:58:14.361Z</time></trkpt><trkpt lat="43.7579989" lon="11.1810404"><ele>44.833333333333336</ele><time>2026-04-20T10:58:19.255Z</time></trkpt><trkpt lat="43.7579654" lon="11.181122"><ele>45.0</ele><time>2026-04-20T10:58:23.363Z</time></trkpt><trkpt lat="43.7579307" lon="11.1811972"><ele>45.0</ele><time>2026-04-20T10:58:27.386Z</time></trkpt><trkpt lat="43.7578739" lon="11.181316"><ele>45.0</ele><time>2026-04-20T10:58:32.413Z</time></trkpt><trkpt lat="43.757825" lon="11.1813866"><ele>45.0</ele><time>2026-04-20T10:58:34.362Z</time></trkpt><trkpt lat="43.7577991" lon="11.181471"><ele>45.0</ele><time>2026-04-20T10:58:42.388Z</time></trkpt><trkpt lat="43.7577984" lon="11.1816431"><ele>45.0</ele><time>2026-04-20T10:58:52.39Z</time></trkpt><trkpt lat="43.7577603" lon="11.1817306"><ele>45.0</ele><time>2026-04-20T10:58:56.334Z</time></trkpt><trkpt lat="43.7577322" lon="11.181836"><ele>45.14285714285714</ele><time>2026-04-20T10:59:00.435Z</time></trkpt><trkpt lat="43.7576939" lon="11.181914"><ele>45.28571428571429</ele><time>2026-04-20T10:59:05.294Z</time></trkpt><trkpt lat="43.7576539" lon="11.1819956"><ele>45.42857142857143</ele><time>2026-04-20T10:59:10.361Z</time></trkpt><trkpt lat="43.757609" lon="11.1820813"><ele>45.57142857142857</ele><time>2026-04-20T10:59:17.395Z</time></trkpt><trkpt lat="43.7575589" lon="11.1821599"><ele>45.71428571428571</ele><time>2026-04-20T10:59:24.373Z</time></trkpt><trkpt lat="43.7575129" lon="11.1822328"><ele>45.85714285714286</ele><time>2026-04-20T10:59:32.396Z</time></trkpt><trkpt lat="43.7574663" lon="11.1823033"><ele>46.0</ele><time>2026-04-20T10:59:39.416Z</time></trkpt><trkpt lat="43.7574251" lon="11.1823753"><ele>46.0</ele><time>2026-04-20T10:59:45.361Z</time></trkpt><trkpt lat="43.7573587" lon="11.1825277"><ele>46.0</ele><time>2026-04-20T11:00:13.382Z</time></trkpt><trkpt lat="43.7571454" lon="11.1828552"><ele>46.0</ele><time>2026-04-20T11:00:14.361Z</time></trkpt><trkpt lat="43.7571163" lon="11.1829485"><ele>46.0</ele><time>2026-04-20T11:00:20.361Z</time></trkpt><trkpt lat="43.7570976" lon="11.1830403"><ele>46.0</ele><time>2026-04-20T11:00:24.363Z</time></trkpt><trkpt lat="43.757053" lon="11.1831127"><ele>46.0</ele><time>2026-04-20T11:00:32.337Z</time></trkpt><trkpt lat="43.7569956" lon="11.1831918"><ele>46.0</ele><time>2026-04-20T11:00:49.368Z</time></trkpt><trkpt lat="43.7569572" lon="11.1832806"><ele>46.0</ele><time>2026-04-20T11:00:55.395Z</time></trkpt><trkpt lat="43.7568966" lon="11.1834175"><ele>46.0</ele><time>2026-04-20T11:00:59.371Z</time></trkpt><trkpt lat="43.7567788" lon="11.1836657"><ele>46.285714285714285</ele><time>2026-04-20T11:01:00.272Z</time></trkpt><trkpt lat="43.7567182" lon="11.1837116"><ele>46.57142857142857</ele><time>2026-04-20T11:01:06.361Z</time></trkpt><trkpt lat="43.75666" lon="11.1837594"><ele>46.857142857142854</ele><time>2026-04-20T11:01:10.372Z</time></trkpt><trkpt lat="43.7566215" lon="11.1838457"><ele>47.14285714285714</ele><time>2026-04-20T11:01:14.374Z</time></trkpt><trkpt lat="43.7565989" lon="11.1839339"><ele>47.42857142857143</ele><time>2026-04-20T11:01:17.419Z</time></trkpt><trkpt lat="43.7565845" lon="11.1840393"><ele>47.71428571428571</ele><time>2026-04-20T11:01:21.36Z</time></trkpt><trkpt lat="43.7565576" lon="11.1841331"><ele>48.0</ele><time>2026-04-20T11:01:26.442Z</time></trkpt><trkpt lat="43.7565378" lon="11.1842339"><ele>47.99999999999999</ele><time>2026-04-20T11:01:30.465Z</time></trkpt><trkpt lat="43.7564998" lon="11.1843128"><ele>48.0</ele><time>2026-04-20T11:01:35.466Z</time></trkpt><trkpt lat="43.7564766" lon="11.1843975"><ele>48.0</ele><time>2026-04-20T11:01:43.402Z</time></trkpt><trkpt lat="43.7564472" lon="11.184476"><ele>48.0</ele><time>2026-04-20T11:01:49.381Z</time></trkpt><trkpt lat="43.7564034" lon="11.184565"><ele>48.0</ele><time>2026-04-20T11:01:54.381Z</time></trkpt><trkpt lat="43.7563708" lon="11.1846434"><ele>47.99999999999999</ele><time>2026-04-20T11:01:58.455Z</time></trkpt><trkpt lat="43.7563395" lon="11.1847229"><ele>48.0</ele><time>2026-04-20T11:02:02.425Z</time></trkpt><trkpt lat="43.7563069" lon="11.1848093"><ele>47.71428571428571</ele><time>2026-04-20T11:02:07.426Z</time></trkpt><trkpt lat="43.7562703" lon="11.1849021"><ele>47.42857142857143</ele><time>2026-04-20T11:02:14.383Z</time></trkpt><trkpt lat="43.7562283" lon="11.1849887"><ele>47.14285714285714</ele><time>2026-04-20T11:02:19.396Z</time></trkpt><trkpt lat="43.75619" lon="11.1850597"><ele>46.857142857142854</ele><time>2026-04-20T11:02:24.384Z</time></trkpt><trkpt lat="43.7561566" lon="11.1851492"><ele>46.57142857142857</ele><time>2026-04-20T11:02:30.334Z</time></trkpt><trkpt lat="43.7561231" lon="11.1852368"><ele>46.285714285714285</ele><time>2026-04-20T11:02:35.454Z</time></trkpt><trkpt lat="43.7560885" lon="11.185318"><ele>46.0</ele><time>2026-04-20T11:02:40.362Z</time></trkpt><trkpt lat="43.7560405" lon="11.1853971"><ele>46.142857142857146</ele><time>2026-04-20T11:02:46.449Z</time></trkpt><trkpt lat="43.7559981" lon="11.1854683"><ele>46.285714285714285</ele><time>2026-04-20T11:02:52.428Z</time></trkpt><trkpt lat="43.7559644" lon="11.1855583"><ele>46.42857142857143</ele><time>2026-04-20T11:02:58.407Z</time></trkpt><trkpt lat="43.7559269" lon="11.1856364"><ele>46.57142857142857</ele><time>2026-04-20T11:03:02.427Z</time></trkpt><trkpt lat="43.7558893" lon="11.1857078"><ele>46.71428571428571</ele><time>2026-04-20T11:03:07.427Z</time></trkpt><trkpt lat="43.7558531" lon="11.1857858"><ele>46.857142857142854</ele><time>2026-04-20T11:03:12.427Z</time></trkpt><trkpt lat="43.7558144" lon="11.1858626"><ele>47.0</ele><time>2026-04-20T11:03:16.45Z</time></trkpt><trkpt lat="43.7557741" lon="11.1859318"><ele>47.0</ele><time>2026-04-20T11:03:21.34Z</time></trkpt><trkpt lat="43.7557447" lon="11.1860097"><ele>47.0</ele><time>2026-04-20T11:03:26.155Z</time></trkpt><trkpt lat="43.7556835" lon="11.1860541"><ele>47.0</ele><time>2026-04-20T11:03:32.429Z</time></trkpt><trkpt lat="43.7556161" lon="11.1860598"><ele>47.0</ele><time>2026-04-20T11:03:38.406Z</time></trkpt><trkpt lat="43.7555447" lon="11.1860108"><ele>47.0</ele><time>2026-04-20T11:03:42.428Z</time></trkpt><trkpt lat="43.7554886" lon="11.1859569"><ele>47.0</ele><time>2026-04-20T11:03:46.361Z</time></trkpt><trkpt lat="43.7554407" lon="11.1858967"><ele>47.0</ele><time>2026-04-20T11:03:51.451Z</time></trkpt><trkpt lat="43.7553786" lon="11.1858683"><ele>47.0</ele><time>2026-04-20T11:03:56.36Z</time></trkpt><trkpt lat="43.7553052" lon="11.1858199"><ele>47.0</ele><time>2026-04-20T11:04:01.452Z</time></trkpt><trkpt lat="43.755236" lon="11.185765"><ele>47.0</ele><time>2026-04-20T11:04:05.365Z</time></trkpt><trkpt lat="43.755179" lon="11.1857122"><ele>47.0</ele><time>2026-04-20T11:04:10.416Z</time></trkpt><trkpt lat="43.7551172" lon="11.1856525"><ele>47.0</ele><time>2026-04-20T11:04:18.409Z</time></trkpt><trkpt lat="43.7550376" lon="11.1856218"><ele>47.0</ele><time>2026-04-20T11:04:23.293Z</time></trkpt><trkpt lat="43.7550033" lon="11.1855437"><ele>47.0</ele><time>2026-04-20T11:04:25.432Z</time></trkpt><trkpt lat="43.7549515" lon="11.1854825"><ele>47.0</ele><time>2026-04-20T11:04:29.383Z</time></trkpt><trkpt lat="43.7548799" lon="11.185449"><ele>47.0</ele><time>2026-04-20T11:04:35.335Z</time></trkpt><trkpt lat="43.754814" lon="11.1854227"><ele>47.0</ele><time>2026-04-20T11:04:39.385Z</time></trkpt><trkpt lat="43.7547565" lon="11.1853736"><ele>47.0</ele><time>2026-04-20T11:04:43.406Z</time></trkpt><trkpt lat="43.7546997" lon="11.1853042"><ele>47.0</ele><time>2026-04-20T11:04:48.407Z</time></trkpt><trkpt lat="43.7546477" lon="11.1852418"><ele>47.0</ele><time>2026-04-20T11:04:54.386Z</time></trkpt><trkpt lat="43.7545945" lon="11.1851816"><ele>47.0</ele><time>2026-04-20T11:05:00.365Z</time></trkpt><trkpt lat="43.7545348" lon="11.1851305"><ele>47.0</ele><time>2026-04-20T11:05:06.344Z</time></trkpt><trkpt lat="43.7544634" lon="11.1851486"><ele>47.0</ele><time>2026-04-20T11:05:17.432Z</time></trkpt><trkpt lat="43.7543958" lon="11.1851618"><ele>47.0</ele><time>2026-04-20T11:05:22.432Z</time></trkpt><trkpt lat="43.7543285" lon="11.1851175"><ele>47.0</ele><time>2026-04-20T11:05:26.36Z</time></trkpt><trkpt lat="43.7542742" lon="11.1850702"><ele>47.0</ele><time>2026-04-20T11:05:30.368Z</time></trkpt><trkpt lat="43.7542229" lon="11.1850193"><ele>47.0</ele><time>2026-04-20T11:05:37.476Z</time></trkpt><trkpt lat="43.7541854" lon="11.1849491"><ele>47.14285714285714</ele><time>2026-04-20T11:05:43.412Z</time></trkpt><trkpt lat="43.7541297" lon="11.1848832"><ele>47.285714285714285</ele><time>2026-04-20T11:05:49.413Z</time></trkpt><trkpt lat="43.7540737" lon="11.1848244"><ele>47.42857142857143</ele><time>2026-04-20T11:05:54.392Z</time></trkpt><trkpt lat="43.7540185" lon="11.1847708"><ele>47.57142857142857</ele><time>2026-04-20T11:05:59.393Z</time></trkpt><trkpt lat="43.7539673" lon="11.1847106"><ele>47.714285714285715</ele><time>2026-04-20T11:06:04.392Z</time></trkpt><trkpt lat="43.7539154" lon="11.1846582"><ele>47.857142857142854</ele><time>2026-04-20T11:06:09.393Z</time></trkpt><trkpt lat="43.7538574" lon="11.1845973"><ele>48.0</ele><time>2026-04-20T11:06:15.852Z</time></trkpt><trkpt lat="43.7538003" lon="11.1845377"><ele>47.99999999999999</ele><time>2026-04-20T11:06:20.176Z</time></trkpt><trkpt lat="43.7537391" lon="11.1845131"><ele>48.0</ele><time>2026-04-20T11:06:24.394Z</time></trkpt><trkpt lat="43.7536546" lon="11.1845132"><ele>48.0</ele><time>2026-04-20T11:06:28.417Z</time></trkpt><trkpt lat="43.7535821" lon="11.1845008"><ele>48.0</ele><time>2026-04-20T11:06:31.359Z</time></trkpt><trkpt lat="43.7535265" lon="11.1845455"><ele>48.0</ele><time>2026-04-20T11:06:34.394Z</time></trkpt><trkpt lat="43.7534526" lon="11.1846005"><ele>47.99999999999999</ele><time>2026-04-20T11:06:38.675Z</time></trkpt><trkpt lat="43.7533994" lon="11.1846749"><ele>48.0</ele><time>2026-04-20T11:06:43.053Z</time></trkpt><trkpt lat="43.7533567" lon="11.1847485"><ele>47.857142857142854</ele><time>2026-04-20T11:06:47.359Z</time></trkpt><trkpt lat="43.7533029" lon="11.1848211"><ele>47.714285714285715</ele><time>2026-04-20T11:06:53.412Z</time></trkpt><trkpt lat="43.7532546" lon="11.1849006"><ele>47.57142857142857</ele><time>2026-04-20T11:06:58.412Z</time></trkpt><trkpt lat="43.7531853" lon="11.1849252"><ele>47.42857142857143</ele><time>2026-04-20T11:07:06.454Z</time></trkpt><trkpt lat="43.7531544" lon="11.1850022"><ele>47.285714285714285</ele><time>2026-04-20T11:07:19.392Z</time></trkpt><trkpt lat="43.7531031" lon="11.1850666"><ele>47.14285714285714</ele><time>2026-04-20T11:07:24.393Z</time></trkpt><trkpt lat="43.7530576" lon="11.1851513"><ele>47.0</ele><time>2026-04-20T11:07:28.415Z</time></trkpt><trkpt lat="43.7530248" lon="11.1852377"><ele>47.0</ele><time>2026-04-20T11:07:32.438Z</time></trkpt><trkpt lat="43.7529934" lon="11.1853178"><ele>47.0</ele><time>2026-04-20T11:07:37.356Z</time></trkpt><trkpt lat="43.7529563" lon="11.1853939"><ele>47.0</ele><time>2026-04-20T11:07:44.394Z</time></trkpt><trkpt lat="43.752917" lon="11.1854806"><ele>47.0</ele><time>2026-04-20T11:07:52.356Z</time></trkpt><trkpt lat="43.7528759" lon="11.1855669"><ele>47.0</ele><time>2026-04-20T11:07:56.359Z</time></trkpt><trkpt lat="43.7528386" lon="11.185642"><ele>47.0</ele><time>2026-04-20T11:08:00.373Z</time></trkpt><trkpt lat="43.7527926" lon="11.185715"><ele>47.0</ele><time>2026-04-20T11:08:04.354Z</time></trkpt><trkpt lat="43.7527509" lon="11.1857869"><ele>47.14285714285714</ele><time>2026-04-20T11:08:09.396Z</time></trkpt><trkpt lat="43.7526865" lon="11.185854"><ele>47.285714285714285</ele><time>2026-04-20T11:08:17.359Z</time></trkpt><trkpt lat="43.7526231" lon="11.1858769"><ele>47.42857142857143</ele><time>2026-04-20T11:08:20.375Z</time></trkpt><trkpt lat="43.7525571" lon="11.185892"><ele>47.57142857142857</ele><time>2026-04-20T11:08:24.397Z</time></trkpt><trkpt lat="43.7525037" lon="11.1859589"><ele>47.714285714285715</ele><time>2026-04-20T11:08:30.375Z</time></trkpt><trkpt lat="43.752442" lon="11.1860079"><ele>47.857142857142854</ele><time>2026-04-20T11:08:37.394Z</time></trkpt><trkpt lat="43.7524266" lon="11.1860997"><ele>48.0</ele><time>2026-04-20T11:08:43.412Z</time></trkpt><trkpt lat="43.7524244" lon="11.1862005"><ele>47.99999999999999</ele><time>2026-04-20T11:08:47.359Z</time></trkpt><trkpt lat="43.7524341" lon="11.1862873"><ele>48.0</ele><time>2026-04-20T11:08:51.359Z</time></trkpt><trkpt lat="43.7524402" lon="11.18639"><ele>48.0</ele><time>2026-04-20T11:08:56.392Z</time></trkpt><trkpt lat="43.7524588" lon="11.1864792"><ele>48.0</ele><time>2026-04-20T11:09:00.377Z</time></trkpt><trkpt lat="43.7524775" lon="11.1865839"><ele>48.0</ele><time>2026-04-20T11:09:04.399Z</time></trkpt><trkpt lat="43.7524605" lon="11.1866941"><ele>47.99999999999999</ele><time>2026-04-20T11:09:08.421Z</time></trkpt><trkpt lat="43.7524274" lon="11.1867796"><ele>48.0</ele><time>2026-04-20T11:09:12.357Z</time></trkpt><trkpt lat="43.7523921" lon="11.1868539"><ele>47.857142857142854</ele><time>2026-04-20T11:09:17.359Z</time></trkpt><trkpt lat="43.7523504" lon="11.1869363"><ele>47.714285714285715</ele><time>2026-04-20T11:09:22.36Z</time></trkpt><trkpt lat="43.7523045" lon="11.1870025"><ele>47.57142857142857</ele><time>2026-04-20T11:09:27.359Z</time></trkpt><trkpt lat="43.7522624" lon="11.1870833"><ele>47.42857142857143</ele><time>2026-04-20T11:09:34.401Z</time></trkpt><trkpt lat="43.7522226" lon="11.187161"><ele>47.285714285714285</ele><time>2026-04-20T11:09:39.401Z</time></trkpt><trkpt lat="43.7521807" lon="11.1872437"><ele>47.14285714285714</ele><time>2026-04-20T11:09:44.401Z</time></trkpt><trkpt lat="43.7521581" lon="11.1873341"><ele>47.0</ele><time>2026-04-20T11:09:51.359Z</time></trkpt><trkpt lat="43.7522072" lon="11.1874099"><ele>47.0</ele><time>2026-04-20T11:10:00.38Z</time></trkpt><trkpt lat="43.7522442" lon="11.1874837"><ele>47.0</ele><time>2026-04-20T11:10:03.425Z</time></trkpt><trkpt lat="43.752233" lon="11.1875726"><ele>47.0</ele><time>2026-04-20T11:10:07.374Z</time></trkpt><trkpt lat="43.7522259" lon="11.187665"><ele>47.0</ele><time>2026-04-20T11:10:12.359Z</time></trkpt><trkpt lat="43.7522156" lon="11.1877522"><ele>47.0</ele><time>2026-04-20T11:10:21.359Z</time></trkpt><trkpt lat="43.7522673" lon="11.1878145"><ele>47.0</ele><time>2026-04-20T11:10:27.36Z</time></trkpt><trkpt lat="43.7523003" lon="11.1878971"><ele>47.0</ele><time>2026-04-20T11:10:32.359Z</time></trkpt><trkpt lat="43.752342" lon="11.187972"><ele>47.0</ele><time>2026-04-20T11:10:39.405Z</time></trkpt><trkpt lat="43.7523912" lon="11.1880469"><ele>47.0</ele><time>2026-04-20T11:10:45.383Z</time></trkpt><trkpt lat="43.7524328" lon="11.1881295"><ele>47.0</ele><time>2026-04-20T11:10:49.393Z</time></trkpt><trkpt lat="43.7524725" lon="11.1882169"><ele>47.0</ele><time>2026-04-20T11:10:53.427Z</time></trkpt><trkpt lat="43.7525195" lon="11.188305"><ele>47.0</ele><time>2026-04-20T11:10:57.358Z</time></trkpt><trkpt lat="43.7525582" lon="11.1883832"><ele>47.0</ele><time>2026-04-20T11:11:01.362Z</time></trkpt><trkpt lat="43.7525992" lon="11.1884547"><ele>47.0</ele><time>2026-04-20T11:11:05.384Z</time></trkpt><trkpt lat="43.7526405" lon="11.1885459"><ele>47.0</ele><time>2026-04-20T11:11:11.296Z</time></trkpt><trkpt lat="43.7526869" lon="11.1886112"><ele>47.0</ele><time>2026-04-20T11:11:15.385Z</time></trkpt><trkpt lat="43.7527231" lon="11.1886845"><ele>47.0</ele><time>2026-04-20T11:11:20.386Z</time></trkpt><trkpt lat="43.752764" lon="11.188763"><ele>47.0</ele><time>2026-04-20T11:11:27.358Z</time></trkpt><trkpt lat="43.7528025" lon="11.1888468"><ele>47.0</ele><time>2026-04-20T11:11:33.43Z</time></trkpt><trkpt lat="43.7528416" lon="11.1889265"><ele>47.0</ele><time>2026-04-20T11:11:38.43Z</time></trkpt><trkpt lat="43.7528834" lon="11.1890047"><ele>47.0</ele><time>2026-04-20T11:11:43.43Z</time></trkpt><trkpt lat="43.7529193" lon="11.1890787"><ele>47.285714285714285</ele><time>2026-04-20T11:11:47.414Z</time></trkpt><trkpt lat="43.7529599" lon="11.1891582"><ele>47.57142857142857</ele><time>2026-04-20T11:11:52.358Z</time></trkpt><trkpt lat="43.7530009" lon="11.1892445"><ele>47.85714285714286</ele><time>2026-04-20T11:11:57.396Z</time></trkpt><trkpt lat="43.7530456" lon="11.1893194"><ele>48.14285714285714</ele><time>2026-04-20T11:12:02.358Z</time></trkpt><trkpt lat="43.7530896" lon="11.189417"><ele>48.42857142857143</ele><time>2026-04-20T11:12:07.359Z</time></trkpt><trkpt lat="43.7531326" lon="11.1895024"><ele>48.714285714285715</ele><time>2026-04-20T11:12:13.431Z</time></trkpt><trkpt lat="43.7531703" lon="11.1895804"><ele>49.0</ele><time>2026-04-20T11:12:19.411Z</time></trkpt><trkpt lat="43.7532155" lon="11.1896618"><ele>49.0</ele><time>2026-04-20T11:12:24.41Z</time></trkpt><trkpt lat="43.7532588" lon="11.1897449"><ele>49.0</ele><time>2026-04-20T11:12:29.41Z</time></trkpt><trkpt lat="43.7532992" lon="11.1898209"><ele>49.0</ele><time>2026-04-20T11:12:34.41Z</time></trkpt><trkpt lat="43.7533456" lon="11.1898968"><ele>49.0</ele><time>2026-04-20T11:12:40.389Z</time></trkpt><trkpt lat="43.7533702" lon="11.1899782"><ele>49.0</ele><time>2026-04-20T11:12:46.368Z</time></trkpt><trkpt lat="43.753421" lon="11.1900507"><ele>49.0</ele><time>2026-04-20T11:12:51.368Z</time></trkpt><trkpt lat="43.7534649" lon="11.1901334"><ele>49.0</ele><time>2026-04-20T11:12:57.452Z</time></trkpt><trkpt lat="43.753507" lon="11.1902073"><ele>48.714285714285715</ele><time>2026-04-20T11:13:03.358Z</time></trkpt><trkpt lat="43.7535672" lon="11.1902453"><ele>48.42857142857143</ele><time>2026-04-20T11:13:12.358Z</time></trkpt><trkpt lat="43.7535901" lon="11.1903417"><ele>48.14285714285714</ele><time>2026-04-20T11:13:17.358Z</time></trkpt><trkpt lat="43.7536288" lon="11.1904232"><ele>47.85714285714286</ele><time>2026-04-20T11:13:21.369Z</time></trkpt><trkpt lat="43.7536638" lon="11.190502"><ele>47.57142857142857</ele><time>2026-04-20T11:13:25.373Z</time></trkpt><trkpt lat="43.7537064" lon="11.1905863"><ele>47.285714285714285</ele><time>2026-04-20T11:13:30.392Z</time></trkpt><trkpt lat="43.7537644" lon="11.1906208"><ele>47.0</ele><time>2026-04-20T11:13:35.375Z</time></trkpt><trkpt lat="43.7538147" lon="11.1905626"><ele>47.0</ele><time>2026-04-20T11:13:43.358Z</time></trkpt><trkpt lat="43.7538666" lon="11.1905075"><ele>47.0</ele><time>2026-04-20T11:13:48.435Z</time></trkpt><trkpt lat="43.7539176" lon="11.1904448"><ele>47.0</ele><time>2026-04-20T11:13:53.436Z</time></trkpt><trkpt lat="43.7539646" lon="11.1903836"><ele>47.0</ele><time>2026-04-20T11:13:59.414Z</time></trkpt><trkpt lat="43.7540097" lon="11.1903211"><ele>47.0</ele><time>2026-04-20T11:14:02.358Z</time></trkpt><trkpt lat="43.7540673" lon="11.1902667"><ele>47.0</ele><time>2026-04-20T11:14:06.371Z</time></trkpt><trkpt lat="43.7541077" lon="11.1901965"><ele>47.0</ele><time>2026-04-20T11:14:10.394Z</time></trkpt><trkpt lat="43.7541654" lon="11.190135"><ele>47.0</ele><time>2026-04-20T11:14:15.393Z</time></trkpt><trkpt lat="43.7542201" lon="11.190081"><ele>47.0</ele><time>2026-04-20T11:14:20.357Z</time></trkpt><trkpt lat="43.7542886" lon="11.1900465"><ele>47.0</ele><time>2026-04-20T11:14:28.438Z</time></trkpt><trkpt lat="43.7543454" lon="11.1900002"><ele>47.0</ele><time>2026-04-20T11:14:35.394Z</time></trkpt><trkpt lat="43.7544203" lon="11.1900482"><ele>47.0</ele><time>2026-04-20T11:14:40.394Z</time></trkpt><trkpt lat="43.7544712" lon="11.1901066"><ele>47.0</ele><time>2026-04-20T11:14:43.438Z</time></trkpt><trkpt lat="43.7545192" lon="11.1901783"><ele>47.0</ele><time>2026-04-20T11:14:47.358Z</time></trkpt><trkpt lat="43.7546232" lon="11.1901811"><ele>46.857142857142854</ele><time>2026-04-20T11:15:37.358Z</time></trkpt><trkpt lat="43.7546952" lon="11.1901162"><ele>46.71428571428571</ele><time>2026-04-20T11:15:42.358Z</time></trkpt><trkpt lat="43.7547302" lon="11.1900311"><ele>46.57142857142857</ele><time>2026-04-20T11:15:46.374Z</time></trkpt><trkpt lat="43.7547823" lon="11.1899541"><ele>46.42857142857143</ele><time>2026-04-20T11:15:50.375Z</time></trkpt><trkpt lat="43.7548248" lon="11.1898872"><ele>46.285714285714285</ele><time>2026-04-20T11:15:54.418Z</time></trkpt><trkpt lat="43.7548655" lon="11.1898113"><ele>46.142857142857146</ele><time>2026-04-20T11:15:58.353Z</time></trkpt><trkpt lat="43.7549085" lon="11.1897327"><ele>46.0</ele><time>2026-04-20T11:16:03.358Z</time></trkpt><trkpt lat="43.7549467" lon="11.1896588"><ele>46.0</ele><time>2026-04-20T11:16:08.353Z</time></trkpt><trkpt lat="43.7549922" lon="11.1895906"><ele>46.0</ele><time>2026-04-20T11:16:13.275Z</time></trkpt><trkpt lat="43.7550414" lon="11.1895079"><ele>46.0</ele><time>2026-04-20T11:16:18.44Z</time></trkpt><trkpt lat="43.7550824" lon="11.1894175"><ele>46.0</ele><time>2026-04-20T11:16:23.277Z</time></trkpt><trkpt lat="43.7551407" lon="11.1893441"><ele>46.0</ele><time>2026-04-20T11:16:27.357Z</time></trkpt><trkpt lat="43.7551802" lon="11.1892755"><ele>46.0</ele><time>2026-04-20T11:16:32.357Z</time></trkpt><trkpt lat="43.7552291" lon="11.1891993"><ele>46.0</ele><time>2026-04-20T11:16:37.357Z</time></trkpt><trkpt lat="43.7552872" lon="11.1891285"><ele>46.0</ele><time>2026-04-20T11:16:42.357Z</time></trkpt><trkpt lat="43.755332" lon="11.1890542"><ele>46.0</ele><time>2026-04-20T11:16:46.375Z</time></trkpt><trkpt lat="43.7553754" lon="11.1889845"><ele>46.0</ele><time>2026-04-20T11:16:51.375Z</time></trkpt><trkpt lat="43.7554184" lon="11.1889106"><ele>46.0</ele><time>2026-04-20T11:16:58.357Z</time></trkpt><trkpt lat="43.7554724" lon="11.1888406"><ele>46.0</ele><time>2026-04-20T11:17:03.813Z</time></trkpt><trkpt lat="43.7555138" lon="11.1887734"><ele>46.0</ele><time>2026-04-20T11:17:08.072Z</time></trkpt><trkpt lat="43.7555595" lon="11.1887057"><ele>46.0</ele><time>2026-04-20T11:17:12.396Z</time></trkpt><trkpt lat="43.7556092" lon="11.1886368"><ele>46.0</ele><time>2026-04-20T11:17:18.357Z</time></trkpt><trkpt lat="43.7556543" lon="11.1885468"><ele>46.0</ele><time>2026-04-20T11:17:22.316Z</time></trkpt><trkpt lat="43.7557167" lon="11.188483"><ele>46.0</ele><time>2026-04-20T11:17:26.377Z</time></trkpt><trkpt lat="43.7557798" lon="11.1884611"><ele>46.0</ele><time>2026-04-20T11:17:35.397Z</time></trkpt><trkpt lat="43.7558135" lon="11.1883665"><ele>46.0</ele><time>2026-04-20T11:17:40.398Z</time></trkpt><trkpt lat="43.7558655" lon="11.1882941"><ele>46.0</ele><time>2026-04-20T11:17:46.377Z</time></trkpt><trkpt lat="43.7559165" lon="11.1882381"><ele>46.0</ele><time>2026-04-20T11:17:54.42Z</time></trkpt><trkpt lat="43.7559807" lon="11.1882634"><ele>46.0</ele><time>2026-04-20T11:17:58.357Z</time></trkpt><trkpt lat="43.7560361" lon="11.1883066"><ele>46.0</ele><time>2026-04-20T11:18:02.377Z</time></trkpt><trkpt lat="43.7560907" lon="11.1883578"><ele>46.0</ele><time>2026-04-20T11:18:06.376Z</time></trkpt><trkpt lat="43.7561486" lon="11.1884107"><ele>46.0</ele><time>2026-04-20T11:18:10.398Z</time></trkpt><trkpt lat="43.7562117" lon="11.1884591"><ele>46.0</ele><time>2026-04-20T11:18:14.419Z</time></trkpt><trkpt lat="43.7562696" lon="11.188517"><ele>46.0</ele><time>2026-04-20T11:18:19.412Z</time></trkpt><trkpt lat="43.7563366" lon="11.1885731"><ele>46.0</ele><time>2026-04-20T11:18:25.398Z</time></trkpt><trkpt lat="43.7564" lon="11.1886206"><ele>46.285714285714285</ele><time>2026-04-20T11:18:29.42Z</time></trkpt><trkpt lat="43.75647" lon="11.1885665"><ele>46.57142857142857</ele><time>2026-04-20T11:18:45.394Z</time></trkpt><trkpt lat="43.7565121" lon="11.1885007"><ele>46.857142857142854</ele><time>2026-04-20T11:18:49.416Z</time></trkpt><trkpt lat="43.7565369" lon="11.188409"><ele>47.14285714285714</ele><time>2026-04-20T11:18:52.432Z</time></trkpt><trkpt lat="43.7565788" lon="11.1883412"><ele>47.42857142857143</ele><time>2026-04-20T11:18:57.373Z</time></trkpt><trkpt lat="43.7566284" lon="11.1882742"><ele>47.71428571428571</ele><time>2026-04-20T11:19:02.452Z</time></trkpt><trkpt lat="43.7566736" lon="11.1881863"><ele>48.0</ele><time>2026-04-20T11:19:08.438Z</time></trkpt><trkpt lat="43.7567248" lon="11.1881183"><ele>47.99999999999999</ele><time>2026-04-20T11:19:12.357Z</time></trkpt><trkpt lat="43.7567694" lon="11.1880314"><ele>48.0</ele><time>2026-04-20T11:19:17.357Z</time></trkpt><trkpt lat="43.7568245" lon="11.1879664"><ele>48.0</ele><time>2026-04-20T11:19:22.357Z</time></trkpt><trkpt lat="43.7568865" lon="11.1879364"><ele>48.0</ele><time>2026-04-20T11:19:28.439Z</time></trkpt><trkpt lat="43.7569502" lon="11.1879572"><ele>48.0</ele><time>2026-04-20T11:19:35.396Z</time></trkpt><trkpt lat="43.7570152" lon="11.1879441"><ele>47.99999999999999</ele><time>2026-04-20T11:19:46.375Z</time></trkpt><trkpt lat="43.7570637" lon="11.188006"><ele>48.0</ele><time>2026-04-20T11:19:51.374Z</time></trkpt><trkpt lat="43.7571186" lon="11.1880569"><ele>47.857142857142854</ele><time>2026-04-20T11:19:57.357Z</time></trkpt><trkpt lat="43.7571713" lon="11.1881047"><ele>47.714285714285715</ele><time>2026-04-20T11:20:02.357Z</time></trkpt><trkpt lat="43.7572331" lon="11.1881585"><ele>47.57142857142857</ele><time>2026-04-20T11:20:07.357Z</time></trkpt><trkpt lat="43.7572921" lon="11.1882198"><ele>47.42857142857143</ele><time>2026-04-20T11:20:11.375Z</time></trkpt><trkpt lat="43.7573481" lon="11.1882744"><ele>47.285714285714285</ele><time>2026-04-20T11:20:14.31Z</time></trkpt><trkpt lat="43.7574115" lon="11.1883288"><ele>47.14285714285714</ele><time>2026-04-20T11:20:17.415Z</time></trkpt><trkpt lat="43.7574674" lon="11.1883797"><ele>47.0</ele><time>2026-04-20T11:20:21.375Z</time></trkpt><trkpt lat="43.7575267" lon="11.1884331"><ele>47.0</ele><time>2026-04-20T11:20:27.357Z</time></trkpt><trkpt lat="43.7575862" lon="11.1884865"><ele>47.0</ele><time>2026-04-20T11:20:33.441Z</time></trkpt><trkpt lat="43.7576446" lon="11.1885413"><ele>47.0</ele><time>2026-04-20T11:20:39.315Z</time></trkpt><trkpt lat="43.7577058" lon="11.1885875"><ele>47.0</ele><time>2026-04-20T11:20:44.42Z</time></trkpt><trkpt lat="43.7577584" lon="11.1886401"><ele>47.0</ele><time>2026-04-20T11:20:49.42Z</time></trkpt><trkpt lat="43.7578231" lon="11.1886753"><ele>47.0</ele><time>2026-04-20T11:20:54.42Z</time></trkpt><trkpt lat="43.7578934" lon="11.1887132"><ele>47.0</ele><time>2026-04-20T11:21:00.399Z</time></trkpt><trkpt lat="43.757936" lon="11.1887779"><ele>47.0</ele><time>2026-04-20T11:21:04.42Z</time></trkpt><trkpt lat="43.7579895" lon="11.188827"><ele>47.0</ele><time>2026-04-20T11:21:07.357Z</time></trkpt><trkpt lat="43.7580486" lon="11.1888935"><ele>47.0</ele><time>2026-04-20T11:21:11.378Z</time></trkpt><trkpt lat="43.7581018" lon="11.1889426"><ele>47.0</ele><time>2026-04-20T11:21:16.236Z</time></trkpt><trkpt lat="43.7581628" lon="11.1889942"><ele>47.0</ele><time>2026-04-20T11:21:22.357Z</time></trkpt><trkpt lat="43.7582195" lon="11.1890502"><ele>47.0</ele><time>2026-04-20T11:21:27.412Z</time></trkpt><trkpt lat="43.7582766" lon="11.1890931"><ele>47.0</ele><time>2026-04-20T11:21:32.356Z</time></trkpt><trkpt lat="43.758341" lon="11.1891421"><ele>47.0</ele><time>2026-04-20T11:21:36.378Z</time></trkpt><trkpt lat="43.7583972" lon="11.1891952"><ele>47.0</ele><time>2026-04-20T11:21:40.411Z</time></trkpt><trkpt lat="43.7584685" lon="11.1892458"><ele>47.0</ele><time>2026-04-20T11:21:46.455Z</time></trkpt><trkpt lat="43.7585232" lon="11.189303"><ele>47.0</ele><time>2026-04-20T11:21:50.4Z</time></trkpt><trkpt lat="43.7585848" lon="11.1893537"><ele>47.0</ele><time>2026-04-20T11:21:55.4Z</time></trkpt><trkpt lat="43.7586504" lon="11.1893973"><ele>47.0</ele><time>2026-04-20T11:22:00.401Z</time></trkpt><trkpt lat="43.7587199" lon="11.1893813"><ele>47.0</ele><time>2026-04-20T11:22:05.402Z</time></trkpt><trkpt lat="43.7587609" lon="11.189312"><ele>46.857142857142854</ele><time>2026-04-20T11:22:09.418Z</time></trkpt><trkpt lat="43.7588113" lon="11.1892341"><ele>46.71428571428571</ele><time>2026-04-20T11:22:12.356Z</time></trkpt><trkpt lat="43.7588501" lon="11.1891637"><ele>46.57142857142857</ele><time>2026-04-20T11:22:15.413Z</time></trkpt><trkpt lat="43.7589018" lon="11.1890799"><ele>46.42857142857143</ele><time>2026-04-20T11:22:19.418Z</time></trkpt><trkpt lat="43.758954" lon="11.1890066"><ele>46.285714285714285</ele><time>2026-04-20T11:22:23.356Z</time></trkpt><trkpt lat="43.7590022" lon="11.1889397"><ele>46.142857142857146</ele><time>2026-04-20T11:22:27.356Z</time></trkpt><trkpt lat="43.7590453" lon="11.1888674"><ele>46.0</ele><time>2026-04-20T11:22:32.356Z</time></trkpt><trkpt lat="43.7590928" lon="11.1887868"><ele>46.0</ele><time>2026-04-20T11:22:37.292Z</time></trkpt><trkpt lat="43.7591382" lon="11.1887087"><ele>46.0</ele><time>2026-04-20T11:22:42.356Z</time></trkpt><trkpt lat="43.7591806" lon="11.1886365"><ele>46.0</ele><time>2026-04-20T11:22:47.356Z</time></trkpt><trkpt lat="43.7592232" lon="11.188569"><ele>46.0</ele><time>2026-04-20T11:22:52.398Z</time></trkpt><trkpt lat="43.7592589" lon="11.188496"><ele>46.0</ele><time>2026-04-20T11:22:57.356Z</time></trkpt><trkpt lat="43.759303" lon="11.18841"><ele>46.0</ele><time>2026-04-20T11:23:02.356Z</time></trkpt><trkpt lat="43.759345" lon="11.1883387"><ele>46.0</ele><time>2026-04-20T11:23:06.377Z</time></trkpt><trkpt lat="43.7593867" lon="11.1882592"><ele>45.85714285714286</ele><time>2026-04-20T11:23:12.392Z</time></trkpt><trkpt lat="43.7594274" lon="11.1881898"><ele>45.71428571428571</ele><time>2026-04-20T11:23:17.356Z</time></trkpt><trkpt lat="43.7594782" lon="11.1881063"><ele>45.57142857142857</ele><time>2026-04-20T11:23:23.356Z</time></trkpt><trkpt lat="43.759521" lon="11.1880337"><ele>45.42857142857143</ele><time>2026-04-20T11:23:27.356Z</time></trkpt><trkpt lat="43.7595642" lon="11.1879493"><ele>45.28571428571429</ele><time>2026-04-20T11:23:32.356Z</time></trkpt><trkpt lat="43.7595977" lon="11.1878602"><ele>45.14285714285714</ele><time>2026-04-20T11:23:37.294Z</time></trkpt><trkpt lat="43.7596192" lon="11.1877729"><ele>45.0</ele><time>2026-04-20T11:23:43.356Z</time></trkpt><trkpt lat="43.7596481" lon="11.1876773"><ele>44.857142857142854</ele><time>2026-04-20T11:23:50.401Z</time></trkpt><trkpt lat="43.759656" lon="11.1875774"><ele>44.714285714285715</ele><time>2026-04-20T11:23:56.38Z</time></trkpt><trkpt lat="43.7596597" lon="11.187476"><ele>44.57142857142857</ele><time>2026-04-20T11:24:01.379Z</time></trkpt><trkpt lat="43.7596903" lon="11.1873933"><ele>44.42857142857143</ele><time>2026-04-20T11:24:05.401Z</time></trkpt><trkpt lat="43.7596796" lon="11.1873013"><ele>44.285714285714285</ele><time>2026-04-20T11:24:11.38Z</time></trkpt><trkpt lat="43.7596314" lon="11.1872319"><ele>44.142857142857146</ele><time>2026-04-20T11:24:16.38Z</time></trkpt><trkpt lat="43.7595873" lon="11.18716"><ele>44.0</ele><time>2026-04-20T11:24:20.402Z</time></trkpt><trkpt lat="43.7595354" lon="11.1870918"><ele>44.0</ele><time>2026-04-20T11:24:25.402Z</time></trkpt><trkpt lat="43.7594834" lon="11.1870278"><ele>44.0</ele><time>2026-04-20T11:24:30.434Z</time></trkpt><trkpt lat="43.7594262" lon="11.1869578"><ele>44.0</ele><time>2026-04-20T11:24:35.394Z</time></trkpt><trkpt lat="43.7593823" lon="11.1868841"><ele>44.0</ele><time>2026-04-20T11:24:40.454Z</time></trkpt><trkpt lat="43.7593296" lon="11.1868299"><ele>44.0</ele><time>2026-04-20T11:24:45.403Z</time></trkpt><trkpt lat="43.7592725" lon="11.1867684"><ele>44.0</ele><time>2026-04-20T11:24:49.425Z</time></trkpt><trkpt lat="43.7592202" lon="11.1867114"><ele>44.0</ele><time>2026-04-20T11:24:54.425Z</time></trkpt><trkpt lat="43.7591645" lon="11.1866506"><ele>44.0</ele><time>2026-04-20T11:24:59.425Z</time></trkpt><trkpt lat="43.7591041" lon="11.1865928"><ele>44.0</ele><time>2026-04-20T11:25:04.833Z</time></trkpt><trkpt lat="43.7590538" lon="11.1865232"><ele>44.0</ele><time>2026-04-20T11:25:09.426Z</time></trkpt><trkpt lat="43.7589927" lon="11.1864838"><ele>44.0</ele><time>2026-04-20T11:25:15.404Z</time></trkpt><trkpt lat="43.7589376" lon="11.1864159"><ele>44.0</ele><time>2026-04-20T11:25:19.394Z</time></trkpt><trkpt lat="43.7588689" lon="11.18639"><ele>44.0</ele><time>2026-04-20T11:25:24.427Z</time></trkpt><trkpt lat="43.7588081" lon="11.1863424"><ele>44.0</ele><time>2026-04-20T11:25:31.384Z</time></trkpt><trkpt lat="43.7587595" lon="11.1862731"><ele>43.85714285714286</ele><time>2026-04-20T11:25:37.363Z</time></trkpt><trkpt lat="43.7587066" lon="11.1862142"><ele>43.714285714285715</ele><time>2026-04-20T11:25:42.364Z</time></trkpt><trkpt lat="43.7586541" lon="11.1861536"><ele>43.57142857142857</ele><time>2026-04-20T11:25:47.364Z</time></trkpt><trkpt lat="43.7585942" lon="11.1860807"><ele>43.42857142857143</ele><time>2026-04-20T11:25:57.37Z</time></trkpt><trkpt lat="43.7585433" lon="11.1860273"><ele>43.285714285714285</ele><time>2026-04-20T11:26:02.37Z</time></trkpt><trkpt lat="43.7584853" lon="11.1859789"><ele>43.142857142857146</ele><time>2026-04-20T11:26:07.37Z</time></trkpt><trkpt lat="43.7584272" lon="11.1859331"><ele>43.0</ele><time>2026-04-20T11:26:12.371Z</time></trkpt><trkpt lat="43.7583731" lon="11.1858822"><ele>43.42857142857143</ele><time>2026-04-20T11:26:17.038Z</time></trkpt><trkpt lat="43.7583165" lon="11.1858336"><ele>43.85714285714286</ele><time>2026-04-20T11:26:21.393Z</time></trkpt><trkpt lat="43.7582493" lon="11.1857633"><ele>44.28571428571429</ele><time>2026-04-20T11:26:26.394Z</time></trkpt><trkpt lat="43.758192" lon="11.1857085"><ele>44.714285714285715</ele><time>2026-04-20T11:26:30.416Z</time></trkpt><trkpt lat="43.7581334" lon="11.1856545"><ele>45.14285714285714</ele><time>2026-04-20T11:26:34.438Z</time></trkpt><trkpt lat="43.7581085" lon="11.1855713"><ele>45.57142857142858</ele><time>2026-04-20T11:26:43.355Z</time></trkpt><trkpt lat="43.7580414" lon="11.1855183"><ele>46.0</ele><time>2026-04-20T11:26:52.373Z</time></trkpt><trkpt lat="43.7580217" lon="11.1854287"><ele>46.0</ele><time>2026-04-20T11:27:02.374Z</time></trkpt><trkpt lat="43.7580531" lon="11.1853351"><ele>46.0</ele><time>2026-04-20T11:27:07.375Z</time></trkpt><trkpt lat="43.758073" lon="11.1852469"><ele>46.0</ele><time>2026-04-20T11:27:11.374Z</time></trkpt><trkpt lat="43.758077" lon="11.1851369"><ele>46.0</ele><time>2026-04-20T11:27:16.397Z</time></trkpt><trkpt lat="43.7580874" lon="11.1850408"><ele>46.0</ele><time>2026-04-20T11:27:21.374Z</time></trkpt><trkpt lat="43.7581134" lon="11.1849531"><ele>46.0</ele><time>2026-04-20T11:27:26.397Z</time></trkpt><trkpt lat="43.758145" lon="11.1848744"><ele>46.0</ele><time>2026-04-20T11:27:31.399Z</time></trkpt><trkpt lat="43.7581951" lon="11.1848114"><ele>46.0</ele><time>2026-04-20T11:27:37.453Z</time></trkpt><trkpt lat="43.75823" lon="11.1847191"><ele>46.0</ele><time>2026-04-20T11:27:46.393Z</time></trkpt><trkpt lat="43.7582345" lon="11.1846247"><ele>46.0</ele><time>2026-04-20T11:27:54.437Z</time></trkpt><trkpt lat="43.758236" lon="11.1845354"><ele>46.0</ele><time>2026-04-20T11:28:02.373Z</time></trkpt><trkpt lat="43.7582866" lon="11.1844727"><ele>46.0</ele><time>2026-04-20T11:28:14.435Z</time></trkpt><trkpt lat="43.7583464" lon="11.1844425"><ele>46.0</ele><time>2026-04-20T11:28:20.417Z</time></trkpt><trkpt lat="43.7583843" lon="11.1843709"><ele>46.0</ele><time>2026-04-20T11:28:24.439Z</time></trkpt><trkpt lat="43.7584279" lon="11.1842876"><ele>46.0</ele><time>2026-04-20T11:28:29.439Z</time></trkpt><trkpt lat="43.7584507" lon="11.1841865"><ele>46.0</ele><time>2026-04-20T11:28:36.215Z</time></trkpt><trkpt lat="43.7584831" lon="11.1841002"><ele>46.0</ele><time>2026-04-20T11:28:42.375Z</time></trkpt><trkpt lat="43.7585187" lon="11.1840213"><ele>46.0</ele><time>2026-04-20T11:28:47.376Z</time></trkpt><trkpt lat="43.7585506" lon="11.1839206"><ele>46.0</ele><time>2026-04-20T11:28:52.375Z</time></trkpt><trkpt lat="43.7585627" lon="11.1838134"><ele>46.0</ele><time>2026-04-20T11:28:57.393Z</time></trkpt><trkpt lat="43.7585979" lon="11.1837363"><ele>46.0</ele><time>2026-04-20T11:29:02.375Z</time></trkpt><trkpt lat="43.7586327" lon="11.1836548"><ele>45.57142857142858</ele><time>2026-04-20T11:29:06.397Z</time></trkpt><trkpt lat="43.7586594" lon="11.1835697"><ele>45.14285714285714</ele><time>2026-04-20T11:29:11.398Z</time></trkpt><trkpt lat="43.7587058" lon="11.183489"><ele>44.714285714285715</ele><time>2026-04-20T11:29:16.398Z</time></trkpt><trkpt lat="43.7587481" lon="11.1834168"><ele>44.28571428571429</ele><time>2026-04-20T11:29:20.42Z</time></trkpt><trkpt lat="43.7588037" lon="11.1833572"><ele>43.85714285714286</ele><time>2026-04-20T11:29:25.421Z</time></trkpt><trkpt lat="43.7588699" lon="11.1833258"><ele>43.42857142857143</ele><time>2026-04-20T11:29:31.399Z</time></trkpt><trkpt lat="43.7589317" lon="11.1833479"><ele>43.0</ele><time>2026-04-20T11:29:35.421Z</time></trkpt><trkpt lat="43.7589939" lon="11.1833733"><ele>43.00000000000001</ele><time>2026-04-20T11:29:41.399Z</time></trkpt><trkpt lat="43.7590516" lon="11.1834252"><ele>43.0</ele><time>2026-04-20T11:29:49.434Z</time></trkpt><trkpt lat="43.7591177" lon="11.1834555"><ele>43.0</ele><time>2026-04-20T11:29:54.356Z</time></trkpt><trkpt lat="43.7591726" lon="11.1835166"><ele>43.0</ele><time>2026-04-20T11:29:59.443Z</time></trkpt><trkpt lat="43.7592256" lon="11.1835872"><ele>43.0</ele><time>2026-04-20T11:30:04.355Z</time></trkpt><trkpt lat="43.7592788" lon="11.1836373"><ele>43.00000000000001</ele><time>2026-04-20T11:30:09.335Z</time></trkpt><trkpt lat="43.7593371" lon="11.1837173"><ele>43.0</ele><time>2026-04-20T11:30:13.357Z</time></trkpt><trkpt lat="43.7593948" lon="11.1837843"><ele>43.00000000000001</ele><time>2026-04-20T11:30:18.374Z</time></trkpt><trkpt lat="43.7594516" lon="11.1838448"><ele>43.0</ele><time>2026-04-20T11:30:25.423Z</time></trkpt><trkpt lat="43.7595027" lon="11.1839017"><ele>43.0</ele><time>2026-04-20T11:30:28.358Z</time></trkpt><trkpt lat="43.7595525" lon="11.1839596"><ele>43.0</ele><time>2026-04-20T11:30:33.358Z</time></trkpt><trkpt lat="43.7596037" lon="11.1840221"><ele>43.0</ele><time>2026-04-20T11:30:37.38Z</time></trkpt><trkpt lat="43.7596583" lon="11.1840815"><ele>43.00000000000001</ele><time>2026-04-20T11:30:41.374Z</time></trkpt><trkpt lat="43.7597145" lon="11.1841407"><ele>43.0</ele><time>2026-04-20T11:30:46.402Z</time></trkpt><trkpt lat="43.7597719" lon="11.1842037"><ele>42.85714285714286</ele><time>2026-04-20T11:30:52.381Z</time></trkpt><trkpt lat="43.75983" lon="11.18427"><ele>42.714285714285715</ele><time>2026-04-20T11:30:58.359Z</time></trkpt><trkpt lat="43.7598795" lon="11.1843336"><ele>42.57142857142857</ele><time>2026-04-20T11:31:03.359Z</time></trkpt><trkpt lat="43.759937" lon="11.1844032"><ele>42.42857142857143</ele><time>2026-04-20T11:31:09.355Z</time></trkpt><trkpt lat="43.7599884" lon="11.1844575"><ele>42.285714285714285</ele><time>2026-04-20T11:31:14.355Z</time></trkpt><trkpt lat="43.7600551" lon="11.1845065"><ele>42.142857142857146</ele><time>2026-04-20T11:31:19.355Z</time></trkpt><trkpt lat="43.7601241" lon="11.184484"><ele>42.0</ele><time>2026-04-20T11:31:27.382Z</time></trkpt><trkpt lat="43.7601651" lon="11.1844086"><ele>42.0</ele><time>2026-04-20T11:31:32.382Z</time></trkpt><trkpt lat="43.7602314" lon="11.1844043"><ele>42.0</ele><time>2026-04-20T11:31:38.334Z</time></trkpt><trkpt lat="43.7602896" lon="11.1844527"><ele>42.0</ele><time>2026-04-20T11:31:43.392Z</time></trkpt><trkpt lat="43.7603426" lon="11.1845028"><ele>42.0</ele><time>2026-04-20T11:31:48.333Z</time></trkpt><trkpt lat="43.7603935" lon="11.18456"><ele>42.0</ele><time>2026-04-20T11:31:53.362Z</time></trkpt><trkpt lat="43.7604464" lon="11.1846187"><ele>42.0</ele><time>2026-04-20T11:31:59.396Z</time></trkpt><trkpt lat="43.760502" lon="11.1846853"><ele>42.0</ele><time>2026-04-20T11:32:05.294Z</time></trkpt><trkpt lat="43.7605542" lon="11.1847462"><ele>42.0</ele><time>2026-04-20T11:32:11.094Z</time></trkpt><trkpt lat="43.7606107" lon="11.1848139"><ele>42.0</ele><time>2026-04-20T11:32:16.352Z</time></trkpt><trkpt lat="43.7606627" lon="11.1848737"><ele>42.0</ele><time>2026-04-20T11:32:21.404Z</time></trkpt><trkpt lat="43.7607172" lon="11.184935"><ele>42.0</ele><time>2026-04-20T11:32:28.469Z</time></trkpt><trkpt lat="43.7607581" lon="11.185007"><ele>42.0</ele><time>2026-04-20T11:32:53.359Z</time></trkpt><trkpt lat="43.7608081" lon="11.1850768"><ele>42.0</ele><time>2026-04-20T11:32:58.468Z</time></trkpt><trkpt lat="43.760863" lon="11.1851432"><ele>42.0</ele><time>2026-04-20T11:33:04.445Z</time></trkpt><trkpt lat="43.7609261" lon="11.1851889"><ele>41.857142857142854</ele><time>2026-04-20T11:33:10.423Z</time></trkpt><trkpt lat="43.7609913" lon="11.1852118"><ele>41.714285714285715</ele><time>2026-04-20T11:33:15.394Z</time></trkpt><trkpt lat="43.7610619" lon="11.1851889"><ele>41.57142857142857</ele><time>2026-04-20T11:33:19.444Z</time></trkpt><trkpt lat="43.7611326" lon="11.1851649"><ele>41.42857142857143</ele><time>2026-04-20T11:33:25.421Z</time></trkpt><trkpt lat="43.7611983" lon="11.1851319"><ele>41.285714285714285</ele><time>2026-04-20T11:33:31.399Z</time></trkpt><trkpt lat="43.7612567" lon="11.1850633"><ele>41.14285714285714</ele><time>2026-04-20T11:33:37.377Z</time></trkpt><trkpt lat="43.7613121" lon="11.1850119"><ele>41.0</ele><time>2026-04-20T11:33:41.399Z</time></trkpt><trkpt lat="43.7613686" lon="11.1849376"><ele>40.99999999999999</ele><time>2026-04-20T11:33:46.399Z</time></trkpt><trkpt lat="43.761428" lon="11.1848749"><ele>41.0</ele><time>2026-04-20T11:33:50.354Z</time></trkpt><trkpt lat="43.7614788" lon="11.1848134"><ele>41.0</ele><time>2026-04-20T11:33:56.401Z</time></trkpt><trkpt lat="43.7615266" lon="11.1847488"><ele>41.0</ele><time>2026-04-20T11:34:03.358Z</time></trkpt><trkpt lat="43.7615707" lon="11.1846852"><ele>41.0</ele><time>2026-04-20T11:34:09.355Z</time></trkpt><trkpt lat="43.7616165" lon="11.1846147"><ele>40.99999999999999</ele><time>2026-04-20T11:34:15.355Z</time></trkpt><trkpt lat="43.7616633" lon="11.1845483"><ele>41.0</ele><time>2026-04-20T11:34:21.404Z</time></trkpt><trkpt lat="43.761716" lon="11.1844746"><ele>40.99999999999999</ele><time>2026-04-20T11:34:27.381Z</time></trkpt><trkpt lat="43.7617605" lon="11.1843951"><ele>41.0</ele><time>2026-04-20T11:34:33.36Z</time></trkpt><trkpt lat="43.7618086" lon="11.1843181"><ele>41.0</ele><time>2026-04-20T11:34:39.355Z</time></trkpt><trkpt lat="43.7618526" lon="11.1842472"><ele>41.0</ele><time>2026-04-20T11:34:46.405Z</time></trkpt><trkpt lat="43.7618974" lon="11.1841714"><ele>41.0</ele><time>2026-04-20T11:35:09.45Z</time></trkpt><trkpt lat="43.761946" lon="11.1840978"><ele>40.99999999999999</ele><time>2026-04-20T11:35:14.354Z</time></trkpt><trkpt lat="43.7619961" lon="11.1840146"><ele>41.0</ele><time>2026-04-20T11:35:20.429Z</time></trkpt><trkpt lat="43.7620324" lon="11.1839407"><ele>40.99999999999999</ele><time>2026-04-20T11:35:25.429Z</time></trkpt><trkpt lat="43.7620764" lon="11.1838588"><ele>41.0</ele><time>2026-04-20T11:35:31.414Z</time></trkpt><trkpt lat="43.7621169" lon="11.183784"><ele>41.0</ele><time>2026-04-20T11:35:37.386Z</time></trkpt><trkpt lat="43.7621549" lon="11.1837009"><ele>41.0</ele><time>2026-04-20T11:35:42.386Z</time></trkpt><trkpt lat="43.7621877" lon="11.1836212"><ele>41.0</ele><time>2026-04-20T11:35:47.387Z</time></trkpt><trkpt lat="43.7622347" lon="11.1835294"><ele>40.99999999999999</ele><time>2026-04-20T11:35:53.412Z</time></trkpt><trkpt lat="43.7622685" lon="11.1834502"><ele>41.0</ele><time>2026-04-20T11:35:58.413Z</time></trkpt><trkpt lat="43.7622395" lon="11.1833554"><ele>40.99999999999999</ele><time>2026-04-20T11:36:06.432Z</time></trkpt><trkpt lat="43.7621719" lon="11.1833147"><ele>41.0</ele><time>2026-04-20T11:36:10.427Z</time></trkpt><trkpt lat="43.7621125" lon="11.1832663"><ele>41.0</ele><time>2026-04-20T11:36:15.427Z</time></trkpt><trkpt lat="43.762053" lon="11.183213"><ele>41.0</ele><time>2026-04-20T11:36:20.427Z</time></trkpt><trkpt lat="43.7619925" lon="11.1831665"><ele>41.0</ele><time>2026-04-20T11:36:26.406Z</time></trkpt><trkpt lat="43.7619329" lon="11.1831189"><ele>40.99999999999999</ele><time>2026-04-20T11:36:33.364Z</time></trkpt><trkpt lat="43.7618766" lon="11.1830657"><ele>41.0</ele><time>2026-04-20T11:36:40.417Z</time></trkpt><trkpt lat="43.7618154" lon="11.1830121"><ele>41.14285714285714</ele><time>2026-04-20T11:36:46.407Z</time></trkpt><trkpt lat="43.7617569" lon="11.1829656"><ele>41.285714285714285</ele><time>2026-04-20T11:36:54.452Z</time></trkpt><trkpt lat="43.7617004" lon="11.1829121"><ele>41.42857142857143</ele><time>2026-04-20T11:37:00.43Z</time></trkpt><trkpt lat="43.7616437" lon="11.1828626"><ele>41.57142857142857</ele><time>2026-04-20T11:37:06.408Z</time></trkpt><trkpt lat="43.7615827" lon="11.1828189"><ele>41.714285714285715</ele><time>2026-04-20T11:37:12.386Z</time></trkpt><trkpt lat="43.7615239" lon="11.1827563"><ele>41.857142857142854</ele><time>2026-04-20T11:37:18.358Z</time></trkpt><trkpt lat="43.7614682" lon="11.1827111"><ele>42.0</ele><time>2026-04-20T11:37:23.364Z</time></trkpt><trkpt lat="43.7614107" lon="11.1826606"><ele>42.0</ele><time>2026-04-20T11:37:29.451Z</time></trkpt><trkpt lat="43.7613462" lon="11.1826081"><ele>42.0</ele><time>2026-04-20T11:37:35.431Z</time></trkpt><trkpt lat="43.7612993" lon="11.1825472"><ele>42.0</ele><time>2026-04-20T11:37:41.408Z</time></trkpt><trkpt lat="43.7612735" lon="11.1824526"><ele>42.0</ele><time>2026-04-20T11:37:48.365Z</time></trkpt><trkpt lat="43.761287" lon="11.182351"><ele>42.0</ele><time>2026-04-20T11:37:53.352Z</time></trkpt><trkpt lat="43.7612987" lon="11.1822628"><ele>42.0</ele><time>2026-04-20T11:37:58.365Z</time></trkpt><trkpt lat="43.7613472" lon="11.1821935"><ele>42.0</ele><time>2026-04-20T11:38:02.235Z</time></trkpt><trkpt lat="43.7613992" lon="11.1821391"><ele>42.142857142857146</ele><time>2026-04-20T11:38:07.388Z</time></trkpt><trkpt lat="43.7614384" lon="11.1820558"><ele>42.285714285714285</ele><time>2026-04-20T11:38:12.388Z</time></trkpt><trkpt lat="43.7614788" lon="11.1819686"><ele>42.42857142857143</ele><time>2026-04-20T11:38:17.389Z</time></trkpt><trkpt lat="43.7615092" lon="11.1818796"><ele>42.57142857142857</ele><time>2026-04-20T11:38:22.389Z</time></trkpt><trkpt lat="43.7615362" lon="11.1817931"><ele>42.714285714285715</ele><time>2026-04-20T11:38:27.391Z</time></trkpt><trkpt lat="43.7615742" lon="11.1817104"><ele>42.85714285714286</ele><time>2026-04-20T11:38:32.391Z</time></trkpt><trkpt lat="43.7616055" lon="11.1816311"><ele>43.0</ele><time>2026-04-20T11:38:37.39Z</time></trkpt><trkpt lat="43.7616505" lon="11.1815562"><ele>42.85714285714286</ele><time>2026-04-20T11:38:43.369Z</time></trkpt><trkpt lat="43.7616925" lon="11.1814726"><ele>42.714285714285715</ele><time>2026-04-20T11:38:48.397Z</time></trkpt><trkpt lat="43.7617412" lon="11.1813978"><ele>42.57142857142857</ele><time>2026-04-20T11:38:53.37Z</time></trkpt><trkpt lat="43.7617953" lon="11.1813496"><ele>42.42857142857143</ele><time>2026-04-20T11:38:58.436Z</time></trkpt><trkpt lat="43.7618282" lon="11.1812643"><ele>42.285714285714285</ele><time>2026-04-20T11:39:04.457Z</time></trkpt><trkpt lat="43.761856" lon="11.1811761"><ele>42.142857142857146</ele><time>2026-04-20T11:39:09.336Z</time></trkpt><trkpt lat="43.7618836" lon="11.1810963"><ele>42.0</ele><time>2026-04-20T11:39:14.452Z</time></trkpt><trkpt lat="43.7619306" lon="11.1810198"><ele>42.0</ele><time>2026-04-20T11:39:20.431Z</time></trkpt><trkpt lat="43.7619594" lon="11.1809363"><ele>42.0</ele><time>2026-04-20T11:39:25.334Z</time></trkpt><trkpt lat="43.7619912" lon="11.1808602"><ele>42.0</ele><time>2026-04-20T11:39:29.453Z</time></trkpt><trkpt lat="43.7620295" lon="11.1807764"><ele>42.0</ele><time>2026-04-20T11:39:35.431Z</time></trkpt><trkpt lat="43.7620645" lon="11.1806902"><ele>42.0</ele><time>2026-04-20T11:39:39.778Z</time></trkpt><trkpt lat="43.7620985" lon="11.1806026"><ele>42.0</ele><time>2026-04-20T11:39:45.474Z</time></trkpt><trkpt lat="43.762044" lon="11.1805138"><ele>42.0</ele><time>2026-04-20T11:39:54.353Z</time></trkpt><trkpt lat="43.7619775" lon="11.180457"><ele>42.0</ele><time>2026-04-20T11:39:58.362Z</time></trkpt><trkpt lat="43.7619192" lon="11.1803995"><ele>42.0</ele><time>2026-04-20T11:40:01.405Z</time></trkpt><trkpt lat="43.761858" lon="11.1803467"><ele>42.0</ele><time>2026-04-20T11:40:05.353Z</time></trkpt><trkpt lat="43.761797" lon="11.1803073"><ele>42.0</ele><time>2026-04-20T11:40:10.275Z</time></trkpt><trkpt lat="43.761728" lon="11.1802544"><ele>42.0</ele><time>2026-04-20T11:40:15.427Z</time></trkpt><trkpt lat="43.761675" lon="11.1802011"><ele>42.0</ele><time>2026-04-20T11:40:20.395Z</time></trkpt><trkpt lat="43.7616137" lon="11.1801578"><ele>42.0</ele><time>2026-04-20T11:40:25.273Z</time></trkpt><trkpt lat="43.7615499" lon="11.1801039"><ele>42.0</ele><time>2026-04-20T11:40:30.455Z</time></trkpt><trkpt lat="43.7614856" lon="11.1800497"><ele>42.0</ele><time>2026-04-20T11:40:38.363Z</time></trkpt><trkpt lat="43.7614204" lon="11.1800079"><ele>42.0</ele><time>2026-04-20T11:40:44.353Z</time></trkpt><trkpt lat="43.7613575" lon="11.1799802"><ele>42.0</ele><time>2026-04-20T11:40:51.408Z</time></trkpt><trkpt lat="43.7612997" lon="11.1799331"><ele>42.0</ele><time>2026-04-20T11:40:57.386Z</time></trkpt><trkpt lat="43.7612487" lon="11.1798794"><ele>42.0</ele><time>2026-04-20T11:41:02.387Z</time></trkpt><trkpt lat="43.7611945" lon="11.1798282"><ele>42.0</ele><time>2026-04-20T11:41:08.365Z</time></trkpt><trkpt lat="43.7611387" lon="11.1797767"><ele>41.857142857142854</ele><time>2026-04-20T11:41:13.366Z</time></trkpt><trkpt lat="43.7610812" lon="11.1797206"><ele>41.714285714285715</ele><time>2026-04-20T11:41:18.295Z</time></trkpt><trkpt lat="43.7610205" lon="11.1796624"><ele>41.57142857142857</ele><time>2026-04-20T11:41:23.366Z</time></trkpt><trkpt lat="43.7609582" lon="11.1796233"><ele>41.42857142857143</ele><time>2026-04-20T11:41:27.388Z</time></trkpt><trkpt lat="43.7608928" lon="11.1795782"><ele>41.285714285714285</ele><time>2026-04-20T11:41:33.366Z</time></trkpt><trkpt lat="43.760828" lon="11.1795355"><ele>41.14285714285714</ele><time>2026-04-20T11:41:38.434Z</time></trkpt><trkpt lat="43.7607627" lon="11.179486"><ele>41.0</ele><time>2026-04-20T11:41:43.367Z</time></trkpt><trkpt lat="43.7607048" lon="11.1794433"><ele>41.285714285714285</ele><time>2026-04-20T11:41:51.411Z</time></trkpt><trkpt lat="43.7606397" lon="11.1793855"><ele>41.57142857142857</ele><time>2026-04-20T11:41:57.389Z</time></trkpt><trkpt lat="43.7605733" lon="11.1793438"><ele>41.85714285714286</ele><time>2026-04-20T11:42:02.39Z</time></trkpt><trkpt lat="43.7605062" lon="11.1792947"><ele>42.14285714285714</ele><time>2026-04-20T11:42:07.389Z</time></trkpt><trkpt lat="43.7604475" lon="11.1793396"><ele>42.42857142857143</ele><time>2026-04-20T11:42:14.455Z</time></trkpt><trkpt lat="43.7604087" lon="11.1794201"><ele>42.714285714285715</ele><time>2026-04-20T11:42:19.456Z</time></trkpt><trkpt lat="43.7603808" lon="11.1795028"><ele>43.0</ele><time>2026-04-20T11:42:24.353Z</time></trkpt><trkpt lat="43.7603241" lon="11.1795484"><ele>43.00000000000001</ele><time>2026-04-20T11:42:33.368Z</time></trkpt><trkpt lat="43.7603013" lon="11.179639"><ele>43.0</ele><time>2026-04-20T11:42:39.455Z</time></trkpt><trkpt lat="43.760266" lon="11.1797151"><ele>43.0</ele><time>2026-04-20T11:42:44.352Z</time></trkpt><trkpt lat="43.7602269" lon="11.1798028"><ele>43.0</ele><time>2026-04-20T11:42:49.295Z</time></trkpt><trkpt lat="43.7601583" lon="11.1797938"><ele>43.0</ele><time>2026-04-20T11:42:58.368Z</time></trkpt><trkpt lat="43.7600987" lon="11.1797562"><ele>43.00000000000001</ele><time>2026-04-20T11:43:03.368Z</time></trkpt><trkpt lat="43.7600573" lon="11.1796755"><ele>43.0</ele><time>2026-04-20T11:43:08.368Z</time></trkpt><trkpt lat="43.760009" lon="11.1796188"><ele>43.142857142857146</ele><time>2026-04-20T11:43:15.434Z</time></trkpt><trkpt lat="43.7599436" lon="11.179611"><ele>43.285714285714285</ele><time>2026-04-20T11:43:20.434Z</time></trkpt><trkpt lat="43.7598698" lon="11.1796356"><ele>43.42857142857143</ele><time>2026-04-20T11:43:25.463Z</time></trkpt><trkpt lat="43.7598043" lon="11.1796794"><ele>43.57142857142857</ele><time>2026-04-20T11:43:31.413Z</time></trkpt><trkpt lat="43.7597374" lon="11.1796411"><ele>43.714285714285715</ele><time>2026-04-20T11:43:37.293Z</time></trkpt><trkpt lat="43.7596705" lon="11.1795948"><ele>43.85714285714286</ele><time>2026-04-20T11:43:43.434Z</time></trkpt><trkpt lat="43.7596082" lon="11.1795561"><ele>44.0</ele><time>2026-04-20T11:43:50.376Z</time></trkpt><trkpt lat="43.7595486" lon="11.1795041"><ele>44.0</ele><time>2026-04-20T11:43:57.391Z</time></trkpt><trkpt lat="43.7594869" lon="11.1794504"><ele>44.0</ele><time>2026-04-20T11:44:03.376Z</time></trkpt><trkpt lat="43.7594274" lon="11.1793985"><ele>44.0</ele><time>2026-04-20T11:44:08.375Z</time></trkpt><trkpt lat="43.7593668" lon="11.1793684"><ele>44.0</ele><time>2026-04-20T11:44:13.369Z</time></trkpt><trkpt lat="43.7593009" lon="11.1793381"><ele>44.0</ele><time>2026-04-20T11:44:20.434Z</time></trkpt><trkpt lat="43.7592481" lon="11.1792596"><ele>44.0</ele><time>2026-04-20T11:44:25.434Z</time></trkpt><trkpt lat="43.7591975" lon="11.1791916"><ele>44.0</ele><time>2026-04-20T11:44:29.456Z</time></trkpt><trkpt lat="43.7591413" lon="11.1791489"><ele>44.57142857142857</ele><time>2026-04-20T11:44:33.369Z</time></trkpt><trkpt lat="43.7590835" lon="11.1791018"><ele>45.14285714285714</ele><time>2026-04-20T11:44:38.369Z</time></trkpt><trkpt lat="43.759046" lon="11.1791834"><ele>45.71428571428571</ele><time>2026-04-20T11:44:46.396Z</time></trkpt><trkpt lat="43.7590153" lon="11.1792702"><ele>46.285714285714285</ele><time>2026-04-20T11:44:52.391Z</time></trkpt><trkpt lat="43.7589831" lon="11.1793581"><ele>46.857142857142854</ele><time>2026-04-20T11:44:57.391Z</time></trkpt><trkpt lat="43.7589462" lon="11.1794336"><ele>47.42857142857142</ele><time>2026-04-20T11:45:02.391Z</time></trkpt><trkpt lat="43.7589187" lon="11.1795131"><ele>48.0</ele><time>2026-04-20T11:45:07.391Z</time></trkpt><trkpt lat="43.7588897" lon="11.1795961"><ele>48.0</ele><time>2026-04-20T11:45:14.352Z</time></trkpt><trkpt lat="43.7588219" lon="11.1795768"><ele>48.0</ele><time>2026-04-20T11:45:24.456Z</time></trkpt><trkpt lat="43.7587598" lon="11.1796034"><ele>48.0</ele><time>2026-04-20T11:45:31.413Z</time></trkpt><trkpt lat="43.7587061" lon="11.1796673"><ele>48.0</ele><time>2026-04-20T11:45:37.391Z</time></trkpt><trkpt lat="43.7581378" lon="11.1806614"><ele>44.0</ele><time>2026-04-20T11:47:12.144Z</time></trkpt><trkpt lat="43.7580696" lon="11.1806591"><ele>44.0</ele><time>2026-04-20T11:47:15.359Z</time></trkpt><trkpt lat="43.7580058" lon="11.1806922"><ele>45.0</ele><time>2026-04-20T11:47:20.359Z</time></trkpt><trkpt lat="43.7579315" lon="11.1807062"><ele>45.0</ele><time>2026-04-20T11:47:25.36Z</time></trkpt><trkpt lat="43.7578586" lon="11.180673"><ele>44.0</ele><time>2026-04-20T11:47:30.361Z</time></trkpt><trkpt lat="43.757812" lon="11.1806068"><ele>44.0</ele><time>2026-04-20T11:47:35.443Z</time></trkpt><trkpt lat="43.7577526" lon="11.1805694"><ele>44.0</ele><time>2026-04-20T11:47:48.396Z</time></trkpt></trkseg></trk></gpx>